createdAt,value
2023-05-20T00:00:06.991Z,102543.66
2023-05-20T00:02:11.718Z,102540.25
2023-05-20T00:04:15.569Z,102536.88
2023-05-20T00:06:19.181Z,102544.78
2023-05-20T00:08:22.701Z,102542.28
2023-05-20T00:10:26.128Z,102537.16
2023-05-20T00:12:29.622Z,102537.25
2023-05-20T00:14:32.985Z,102542.56
2023-05-20T00:16:36.820Z,102542.69
2023-05-20T00:18:41.754Z,102543.69
2023-05-20T00:20:45.187Z,102546.47
2023-05-20T00:22:48.682Z,102549.13
2023-05-20T00:24:52.191Z,102546.69
2023-05-20T00:26:55.776Z,102544.16
2023-05-20T00:28:59.220Z,102537.22
2023-05-20T00:31:02.726Z,102541.66
2023-05-20T00:33:06.656Z,102539.94
2023-05-20T00:35:11.739Z,102541.66
2023-05-20T00:37:15.215Z,102531.19
2023-05-20T00:39:18.547Z,102537.31
2023-05-20T00:41:22.696Z,102539.03
2023-05-20T00:43:26.729Z,102536.41
2023-05-20T00:45:30.786Z,102535.56
2023-05-20T00:47:36.577Z,102530.28
2023-05-20T00:49:40.398Z,102529.38
2023-05-20T00:51:45.285Z,102531.06
2023-05-20T00:53:48.923Z,102531.06
2023-05-20T00:55:52.664Z,102524.06
2023-05-20T00:57:56.580Z,102538.94
2023-05-20T01:00:00.191Z,102529.31
2023-05-20T01:02:04.253Z,102530.22
2023-05-20T01:04:07.709Z,102528.50
2023-05-20T01:06:11.260Z,102527.66
2023-05-20T01:08:16.745Z,102531.19
2023-05-20T01:10:20.440Z,102529.47
2023-05-20T01:12:28.191Z,102523.38
2023-05-20T01:14:37.109Z,102527.75
2023-05-20T01:16:40.831Z,102528.63
2023-05-20T01:18:45.078Z,102525.13
2023-05-20T01:20:52.735Z,102525.19
2023-05-20T01:22:59.027Z,102525.19
2023-05-20T01:25:03.180Z,102518.19
2023-05-20T01:27:10.711Z,102521.72
2023-05-20T01:29:14.132Z,102524.34
2023-05-20T01:31:22.961Z,102524.34
2023-05-20T01:33:27.389Z,102526.97
2023-05-20T01:35:31.465Z,102524.34
2023-05-20T01:37:38.002Z,102523.47
2023-05-20T01:39:43.925Z,102524.44
2023-05-20T01:41:49.065Z,102525.34
2023-05-20T01:43:52.572Z,102526.34
2023-05-20T01:45:56.359Z,102524.59
2023-05-20T01:47:59.905Z,102530.72
2023-05-20T01:50:03.527Z,102529.03
2023-05-20T01:52:07.093Z,102528.22
2023-05-20T01:54:10.752Z,102524.78
2023-05-20T01:56:16.464Z,102530.09
2023-05-20T01:58:19.969Z,102529.28
2023-05-20T02:00:23.438Z,102528.44
2023-05-20T02:02:27.047Z,102526.72
2023-05-20T02:04:30.536Z,102531.09
2023-05-20T02:06:34.011Z,102537.19
2023-05-20T02:08:37.412Z,102527.63
2023-05-20T02:10:40.799Z,102523.28
2023-05-20T02:12:46.342Z,102523.28
2023-05-20T02:14:50.524Z,102514.63
2023-05-20T02:16:54.198Z,102512.06
2023-05-20T02:18:58.731Z,102523.50
2023-05-20T02:21:03.964Z,102511.31
2023-05-20T02:23:07.613Z,102513.09
2023-05-20T02:25:11.702Z,102518.38
2023-05-20T02:27:15.089Z,102512.38
2023-05-20T02:29:22.151Z,102512.47
2023-05-20T02:31:27.078Z,102505.53
2023-05-20T02:33:31.604Z,102509.94
2023-05-20T02:35:36.300Z,102504.81
2023-05-20T02:37:40.388Z,102506.63
2023-05-20T02:39:43.682Z,102505.84
2023-05-20T02:41:47.225Z,102504.13
2023-05-20T02:43:50.653Z,102510.25
2023-05-20T02:45:55.454Z,102512.06
2023-05-20T02:47:58.844Z,102505.13
2023-05-20T02:50:02.294Z,102502.63
2023-05-20T02:52:06.678Z,102498.28
2023-05-20T02:54:10.018Z,102501.00
2023-05-20T02:56:13.367Z,102500.22
2023-05-20T02:58:17.367Z,102500.34
2023-05-20T03:00:20.815Z,102496.91
2023-05-20T03:02:26.532Z,102509.19
2023-05-20T03:04:29.932Z,102507.47
2023-05-20T03:06:34.769Z,102515.38
2023-05-20T03:08:39.732Z,102511.91
2023-05-20T03:10:43.137Z,102513.72
2023-05-20T03:12:46.457Z,102515.41
2023-05-20T03:14:50.556Z,102514.63
2023-05-20T03:16:55.509Z,102517.22
2023-05-20T03:19:00.376Z,102516.44
2023-05-20T03:21:04.272Z,102529.50
2023-05-20T03:23:07.902Z,102519.94
2023-05-20T03:25:13.410Z,102515.56
2023-05-20T03:27:16.804Z,102520.81
2023-05-20T03:29:20.415Z,102515.56
2023-05-20T03:31:23.920Z,102512.91
2023-05-20T03:33:27.418Z,102507.66
2023-05-20T03:35:32.840Z,102504.16
2023-05-20T03:37:36.888Z,102509.38
2023-05-20T03:39:40.609Z,102502.34
2023-05-20T03:41:43.966Z,102511.00
2023-05-20T03:43:47.346Z,102503.19
2023-05-20T03:45:50.860Z,102516.22
2023-05-20T03:47:54.287Z,102513.63
2023-05-20T03:49:58.732Z,102512.72
2023-05-20T03:52:04.099Z,102514.41
2023-05-20T03:54:07.805Z,102510.91
2023-05-20T03:56:11.239Z,102510.91
2023-05-20T03:58:16.711Z,102510.78
2023-05-20T04:00:20.133Z,102515.06
2023-05-20T04:02:25.803Z,102514.09
2023-05-20T04:04:29.430Z,102510.50
2023-05-20T04:06:33.076Z,102513.88
2023-05-20T04:08:38.669Z,102520.72
2023-05-20T04:10:43.230Z,102515.41
2023-05-20T04:12:48.220Z,102515.28
2023-05-20T04:14:52.782Z,102515.19
2023-05-20T04:16:57.482Z,102516.78
2023-05-20T04:19:02.792Z,102517.47
2023-05-20T04:21:06.811Z,102514.69
2023-05-20T04:23:10.195Z,102514.59
2023-05-20T04:25:15.249Z,102521.38
2023-05-20T04:27:18.944Z,102516.03
2023-05-20T04:29:23.154Z,102517.63
2023-05-20T04:31:27.495Z,102512.34
2023-05-20T04:33:30.936Z,102514.81
2023-05-20T04:35:35.355Z,102511.25
2023-05-20T04:37:42.526Z,102512.03
2023-05-20T04:39:48.382Z,102507.59
2023-05-20T04:41:55.110Z,102508.41
2023-05-20T04:44:00.669Z,102513.66
2023-05-20T04:46:06.161Z,102509.31
2023-05-20T04:48:09.888Z,102514.56
2023-05-20T04:50:14.940Z,102502.31
2023-05-20T04:52:18.284Z,102499.63
2023-05-20T04:54:21.685Z,102508.28
2023-05-20T04:56:26.192Z,102514.41
2023-05-20T04:58:31.837Z,102509.16
2023-05-20T05:00:35.878Z,102499.53
2023-05-20T05:02:40.282Z,102500.38
2023-05-20T05:04:43.759Z,102510.75
2023-05-20T05:06:49.391Z,102502.84
2023-05-20T05:08:53.091Z,102502.72
2023-05-20T05:10:56.733Z,102507.84
2023-05-20T05:13:00.230Z,102509.44
2023-05-20T05:15:06.064Z,102504.09
2023-05-20T05:17:09.571Z,102504.00
2023-05-20T05:19:13.709Z,102509.13
2023-05-20T05:21:17.910Z,102508.09
2023-05-20T05:23:23.612Z,102510.50
2023-05-20T05:25:27.728Z,102509.38
2023-05-20T05:27:31.131Z,102513.53
2023-05-20T05:29:35.520Z,102516.84
2023-05-20T05:31:40.300Z,102509.66
2023-05-20T05:33:44.144Z,102509.47
2023-05-20T05:35:47.559Z,102507.56
2023-05-20T05:37:51.174Z,102500.38
2023-05-20T05:39:54.533Z,102508.00
2023-05-20T05:41:57.950Z,102507.78
2023-05-20T05:44:01.840Z,102509.28
2023-05-20T05:46:06.752Z,102515.13
2023-05-20T05:48:11.819Z,102511.34
2023-05-20T05:50:15.594Z,102512.81
2023-05-20T05:52:19.106Z,102509.03
2023-05-20T05:54:22.415Z,102511.25
2023-05-20T05:56:26.390Z,102507.38
2023-05-20T05:58:29.746Z,102511.41
2023-05-20T06:00:33.117Z,102514.53
2023-05-20T06:02:36.666Z,102512.44
2023-05-20T06:04:41.797Z,102510.34
2023-05-20T06:06:45.128Z,102502.97
2023-05-20T06:08:48.657Z,102507.00
2023-05-20T06:10:52.684Z,102508.28
2023-05-20T06:12:56.496Z,102504.38
2023-05-20T06:15:00.219Z,102498.66
2023-05-20T06:17:04.088Z,102501.69
2023-05-20T06:19:09.501Z,102504.03
2023-05-20T06:21:14.588Z,102506.38
2023-05-20T06:23:17.964Z,102499.94
2023-05-20T06:25:31.242Z,102496.91
2023-05-20T06:27:34.686Z,102488.66
2023-05-20T06:29:38.133Z,102494.56
2023-05-20T06:31:41.516Z,102491.78
2023-05-20T06:33:44.941Z,102498.63
2023-05-20T06:35:49.642Z,102493.22
2023-05-20T06:37:55.407Z,102493.03
2023-05-20T06:39:58.912Z,102489.47
2023-05-20T06:42:02.224Z,102484.06
2023-05-20T06:44:07.738Z,102484.63
2023-05-20T06:46:29.234Z,102477.13
2023-05-20T06:48:39.995Z,102480.22
2023-05-20T06:50:44.206Z,102475.44
2023-05-20T06:52:47.786Z,102476.72
2023-05-20T06:54:53.155Z,102474.38
2023-05-20T06:56:56.618Z,102463.22
2023-05-20T06:59:00.687Z,102469.53
2023-05-20T07:01:04.611Z,102464.47
2023-05-20T07:03:08.606Z,102470.09
2023-05-20T07:05:12.290Z,102455.66
2023-05-20T07:07:17.368Z,102457.03
2023-05-20T07:09:21.986Z,102453.16
2023-05-20T07:11:26.836Z,102451.69
2023-05-20T07:13:31.790Z,102444.91
2023-05-20T07:15:35.579Z,102454.81
2023-05-20T07:17:39.259Z,102450.94
2023-05-20T07:19:42.689Z,102456.75
2023-05-20T07:21:46.125Z,102458.19
2023-05-20T07:24:10.746Z,102464.03
2023-05-20T07:26:14.175Z,102461.06
2023-05-20T07:28:19.117Z,102462.31
2023-05-20T07:30:22.558Z,102457.34
2023-05-20T07:32:45.940Z,102459.47
2023-05-20T07:34:49.434Z,102462.59
2023-05-20T07:36:53.609Z,102453.47
2023-05-20T07:39:04.224Z,102454.13
2023-05-20T07:41:12.488Z,102459.81
2023-05-20T07:43:16.458Z,102454.25
2023-05-20T07:45:21.644Z,102460.13
2023-05-20T07:47:25.472Z,102449.19
2023-05-20T07:49:28.991Z,102450.69
2023-05-20T07:51:32.382Z,102448.78
2023-05-20T07:53:36.334Z,102438.03
2023-05-20T07:55:39.770Z,102437.59
2023-05-20T07:57:44.795Z,102432.03
2023-05-20T07:59:48.576Z,102438.84
2023-05-20T08:01:54.359Z,102445.84
2023-05-20T08:03:58.519Z,102445.00
2023-05-20T08:06:02.258Z,102447.72
2023-05-20T08:08:06.793Z,102447.72
2023-05-20T08:10:22.040Z,102443.19
2023-05-20T08:12:25.807Z,102451.13
2023-05-20T08:14:29.362Z,102441.38
2023-05-20T08:16:32.901Z,102448.09
2023-05-20T08:18:38.560Z,102448.66
2023-05-20T08:20:42.337Z,102442.34
2023-05-20T08:22:45.698Z,102440.53
2023-05-20T08:24:49.022Z,102437.63
2023-05-20T08:26:52.663Z,102437.53
2023-05-20T08:28:58.474Z,102440.25
2023-05-20T08:31:03.350Z,102432.53
2023-05-20T08:33:08.297Z,102438.00
2023-05-20T08:35:13.510Z,102430.91
2023-05-20T08:37:17.723Z,102429.88
2023-05-20T08:39:21.647Z,102427.13
2023-05-20T08:41:25.830Z,102427.13
2023-05-20T08:43:32.816Z,102414.69
2023-05-20T08:45:40.155Z,102419.38
2023-05-20T08:47:48.923Z,102416.91
2023-05-20T08:49:52.306Z,102411.88
2023-05-20T08:51:57.406Z,102411.38
2023-05-20T08:54:01.110Z,102405.88
2023-05-20T08:56:04.500Z,102411.09
2023-05-20T08:58:07.954Z,102404.75
2023-05-20T09:00:13.523Z,102408.69
2023-05-20T09:02:16.977Z,102417.63
2023-05-20T09:04:20.818Z,102403.59
2023-05-20T09:06:24.223Z,102412.44
2023-05-20T09:08:29.105Z,102402.66
2023-05-20T09:10:33.320Z,102405.41
2023-05-20T09:12:36.810Z,102407.09
2023-05-20T09:14:40.160Z,102403.50
2023-05-20T09:16:44.363Z,102389.09
2023-05-20T09:18:48.070Z,102398.34
2023-05-20T09:20:53.034Z,102406.06
2023-05-20T09:23:00.171Z,102393.97
2023-05-20T09:25:05.471Z,102392.28
2023-05-20T09:27:10.433Z,102387.31
2023-05-20T09:29:13.770Z,102392.16
2023-05-20T09:31:17.783Z,102385.81
2023-05-20T09:33:22.063Z,102390.59
2023-05-20T09:35:26.398Z,102384.47
2023-05-20T09:37:31.318Z,102390.34
2023-05-20T09:39:41.132Z,102375.94
2023-05-20T09:41:55.441Z,102381.22
2023-05-20T09:43:59.741Z,102374.16
2023-05-20T09:46:03.586Z,102382.81
2023-05-20T09:48:10.942Z,102376.06
2023-05-20T09:50:16.406Z,102377.88
2023-05-20T09:52:21.396Z,102365.19
2023-05-20T09:54:25.733Z,102374.78
2023-05-20T09:56:30.221Z,102373.78
2023-05-20T09:58:36.988Z,102374.44
2023-05-20T10:00:40.840Z,102371.91
2023-05-20T10:02:45.960Z,102371.81
2023-05-20T10:04:52.960Z,102369.78
2023-05-20T10:07:30.546Z,102373.84
2023-05-20T10:09:57.415Z,102372.03
2023-05-20T10:12:18.825Z,102365.78
2023-05-20T10:14:35.344Z,102380.63
2023-05-20T10:16:46.779Z,102369.81
2023-05-20T10:18:57.322Z,102373.81
2023-05-20T10:21:01.374Z,102358.38
2023-05-20T10:23:05.644Z,102356.03
2023-05-20T10:25:13.202Z,102364.47
2023-05-20T10:27:19.174Z,102355.25
2023-05-20T10:29:25.544Z,102354.69
2023-05-20T10:31:28.865Z,102346.88
2023-05-20T10:33:42.988Z,102347.72
2023-05-20T10:35:51.895Z,102347.50
2023-05-20T10:37:56.857Z,102345.41
2023-05-20T10:40:09.819Z,102342.25
2023-05-20T10:42:13.168Z,102333.38
2023-05-20T10:44:16.461Z,102335.06
2023-05-20T10:46:31.192Z,102325.19
2023-05-20T10:48:44.320Z,102324.66
2023-05-20T10:50:47.891Z,102325.25
2023-05-20T10:52:51.388Z,102323.13
2023-05-20T10:54:57.794Z,102319.94
2023-05-20T10:57:01.594Z,102321.34
2023-05-20T10:59:05.729Z,102327.94
2023-05-20T11:01:09.178Z,102322.97
2023-05-20T11:03:15.449Z,102325.28
2023-05-20T11:05:19.447Z,102325.19
2023-05-20T11:07:29.546Z,102321.72
2023-05-20T11:09:34.027Z,102327.53
2023-05-20T11:11:38.745Z,102319.19
2023-05-20T11:13:42.414Z,102309.84
2023-05-20T11:15:45.828Z,102313.97
2023-05-20T11:17:55.975Z,102311.00
2023-05-20T11:20:01.584Z,102315.75
2023-05-20T11:22:09.091Z,102312.97
2023-05-20T11:24:12.734Z,102316.81
2023-05-20T11:26:16.197Z,102320.56
2023-05-20T11:28:21.446Z,102314.19
2023-05-20T11:30:25.071Z,102309.00
2023-05-20T11:32:28.765Z,102302.44
2023-05-20T11:34:36.497Z,102301.56
2023-05-20T11:36:43.777Z,102301.97
2023-05-20T11:38:48.120Z,102294.97
2023-05-20T11:40:54.427Z,102294.97
2023-05-20T11:42:59.278Z,102300.47
2023-05-20T11:45:02.851Z,102298.97
2023-05-20T11:47:06.741Z,102292.94
2023-05-20T11:49:10.082Z,102289.34
2023-05-20T11:51:14.779Z,102293.47
2023-05-20T11:53:20.948Z,102296.03
2023-05-20T11:55:24.364Z,102297.63
2023-05-20T11:57:27.770Z,102298.56
2023-05-20T11:59:31.221Z,102295.19
2023-05-20T12:01:37.778Z,102291.03
2023-05-20T12:03:41.358Z,102291.25
2023-05-20T12:05:44.930Z,102292.19
2023-05-20T12:07:48.236Z,102296.53
2023-05-20T12:09:53.230Z,102288.59
2023-05-20T12:11:57.191Z,102289.53
2023-05-20T12:14:00.749Z,102286.25
2023-05-20T12:16:06.044Z,102294.53
2023-05-20T12:18:10.141Z,102300.97
2023-05-20T12:20:15.318Z,102305.72
2023-05-20T12:22:18.679Z,102291.94
2023-05-20T12:24:22.050Z,102289.38
2023-05-20T12:26:28.095Z,102292.97
2023-05-20T12:28:32.242Z,102288.84
2023-05-20T12:30:36.003Z,102284.69
2023-05-20T12:32:39.862Z,102279.63
2023-05-20T12:34:43.211Z,102277.09
2023-05-20T12:36:47.235Z,102275.19
2023-05-20T12:38:50.622Z,102273.50
2023-05-20T12:40:53.947Z,102273.50
2023-05-20T12:42:59.151Z,102273.69
2023-05-20T12:45:02.453Z,102272.19
2023-05-20T12:47:06.331Z,102268.81
2023-05-20T12:49:09.774Z,102265.41
2023-05-20T12:51:13.135Z,102266.34
2023-05-20T12:53:16.568Z,102270.91
2023-05-20T12:55:20.029Z,102270.91
2023-05-20T12:57:23.579Z,102272.78
2023-05-20T12:59:28.337Z,102269.41
2023-05-20T13:01:31.911Z,102262.41
2023-05-20T13:03:35.392Z,102263.06
2023-05-20T13:05:38.996Z,102262.56
2023-05-20T13:07:42.392Z,102259.53
2023-05-20T13:09:46.281Z,102251.50
2023-05-20T13:11:49.661Z,102253.28
2023-05-20T13:13:53.170Z,102254.25
2023-05-20T13:15:57.905Z,102245.56
2023-05-20T13:18:03.450Z,102245.56
2023-05-20T13:20:08.653Z,102240.06
2023-05-20T13:22:12.028Z,102236.03
2023-05-20T13:24:15.436Z,102237.34
2023-05-20T13:26:18.871Z,102226.34
2023-05-20T13:28:22.522Z,102231.22
2023-05-20T13:30:26.008Z,102228.38
2023-05-20T13:32:30.946Z,102227.38
2023-05-20T13:34:34.334Z,102230.78
2023-05-20T13:36:37.707Z,102228.25
2023-05-20T13:38:41.276Z,102227.38
2023-05-20T13:40:44.658Z,102228.25
2023-05-20T13:42:48.200Z,102222.94
2023-05-20T13:44:51.738Z,102214.91
2023-05-20T13:46:55.121Z,102220.00
2023-05-20T13:48:59.949Z,102215.25
2023-05-20T13:51:03.278Z,102213.03
2023-05-20T13:53:06.634Z,102214.31
2023-05-20T13:55:10.932Z,102207.75
2023-05-20T13:57:14.301Z,102205.84
2023-05-20T13:59:17.725Z,102198.84
2023-05-20T14:01:21.100Z,102193.75
2023-05-20T14:03:24.513Z,102193.13
2023-05-20T14:05:29.302Z,102196.09
2023-05-20T14:07:32.695Z,102185.72
2023-05-20T14:09:36.487Z,102186.56
2023-05-20T14:11:39.879Z,102191.00
2023-05-20T14:13:44.556Z,102194.59
2023-05-20T14:15:47.999Z,102188.47
2023-05-20T14:17:51.901Z,102188.47
2023-05-20T14:19:55.608Z,102185.72
2023-05-20T14:22:01.357Z,102184.53
2023-05-20T14:24:04.957Z,102183.59
2023-05-20T14:26:08.363Z,102181.06
2023-05-20T14:28:11.657Z,102177.56
2023-05-20T14:30:15.231Z,102178.50
2023-05-20T14:32:18.695Z,102178.41
2023-05-20T14:34:22.488Z,102173.00
2023-05-20T14:36:25.990Z,102164.09
2023-05-20T14:38:31.401Z,102159.03
2023-05-20T14:40:34.979Z,102159.25
2023-05-20T14:42:38.585Z,102151.63
2023-05-20T14:44:42.038Z,102149.06
2023-05-20T14:46:45.484Z,102149.06
2023-05-20T14:48:48.856Z,102152.47
2023-05-20T14:50:52.443Z,102148.53
2023-05-20T14:52:55.909Z,102151.19
2023-05-20T14:55:00.628Z,102154.78
2023-05-20T14:57:04.134Z,102146.53
2023-05-20T14:59:09.906Z,102141.22
2023-05-20T15:01:13.740Z,102141.44
2023-05-20T15:03:17.318Z,102142.94
2023-05-20T15:05:20.923Z,102137.31
2023-05-20T15:07:24.269Z,102137.00
2023-05-20T15:09:27.987Z,102145.47
2023-05-20T15:11:33.055Z,102137.22
2023-05-20T15:13:38.970Z,102135.97
2023-05-20T15:15:43.634Z,102136.50
2023-05-20T15:17:47.245Z,102134.38
2023-05-20T15:19:50.666Z,102129.38
2023-05-20T15:21:54.977Z,102122.63
2023-05-20T15:23:58.880Z,102131.63
2023-05-20T15:26:02.416Z,102130.13
2023-05-20T15:28:07.199Z,102126.75
2023-05-20T15:30:11.546Z,102125.06
2023-05-20T15:32:14.899Z,102123.25
2023-05-20T15:34:19.721Z,102123.91
2023-05-20T15:36:23.226Z,102114.81
2023-05-20T15:38:26.649Z,102118.19
2023-05-20T15:40:30.048Z,102123.25
2023-05-20T15:42:33.410Z,102123.03
2023-05-20T15:44:38.561Z,102123.78
2023-05-20T15:46:41.945Z,102114.16
2023-05-20T15:48:45.332Z,102109.91
2023-05-20T15:50:48.825Z,102110.75
2023-05-20T15:52:53.489Z,102111.50
2023-05-20T15:54:56.850Z,102106.13
2023-05-20T15:57:00.194Z,102111.28
2023-05-20T15:59:03.547Z,102104.22
2023-05-20T16:01:08.517Z,102113.94
2023-05-20T16:03:11.996Z,102102.50
2023-05-20T16:05:15.759Z,102103.38
2023-05-20T16:07:19.108Z,102101.47
2023-05-20T16:09:22.502Z,102094.25
2023-05-20T16:11:25.850Z,102085.38
2023-05-20T16:13:29.248Z,102088.88
2023-05-20T16:15:36.425Z,102086.34
2023-05-20T16:17:41.477Z,102098.06
2023-05-20T16:19:44.974Z,102091.50
2023-05-20T16:21:48.361Z,102097.25
2023-05-20T16:23:52.725Z,102096.59
2023-05-20T16:25:56.100Z,102090.69
2023-05-20T16:28:01.089Z,102091.09
2023-05-20T16:30:05.202Z,102088.84
2023-05-20T16:32:08.885Z,102085.59
2023-05-20T16:34:14.043Z,102088.34
2023-05-20T16:36:17.454Z,102081.56
2023-05-20T16:38:21.113Z,102084.31
2023-05-20T16:40:24.453Z,102076.47
2023-05-20T16:42:27.919Z,102078.19
2023-05-20T16:44:31.341Z,102076.47
2023-05-20T16:46:34.942Z,102078.19
2023-05-20T16:48:38.327Z,102072.16
2023-05-20T16:50:43.219Z,102078.50
2023-05-20T16:52:46.579Z,102069.06
2023-05-20T16:54:51.967Z,102077.09
2023-05-20T16:56:55.575Z,102072.00
2023-05-20T16:58:58.897Z,102081.84
2023-05-20T17:01:02.588Z,102069.72
2023-05-20T17:03:06.118Z,102080.44
2023-05-20T17:05:10.694Z,102072.63
2023-05-20T17:07:15.586Z,102078.09
2023-05-20T17:09:19.094Z,102078.31
2023-05-20T17:11:22.631Z,102074.81
2023-05-20T17:13:26.100Z,102077.56
2023-05-20T17:15:29.458Z,102074.06
2023-05-20T17:17:32.866Z,102071.53
2023-05-20T17:19:36.344Z,102069.84
2023-05-20T17:21:39.683Z,102069.09
2023-05-20T17:23:44.432Z,102075.31
2023-05-20T17:25:47.805Z,102077.22
2023-05-20T17:27:51.217Z,102072.88
2023-05-20T17:29:54.641Z,102069.50
2023-05-20T17:31:57.940Z,102063.50
2023-05-20T17:34:01.778Z,102067.06
2023-05-20T17:36:05.678Z,102063.69
2023-05-20T17:38:09.028Z,102068.88
2023-05-20T17:40:15.022Z,102060.09
2023-05-20T17:42:18.377Z,102054.81
2023-05-20T17:44:21.772Z,102064.63
2023-05-20T17:46:25.181Z,102065.59
2023-05-20T17:48:28.601Z,102063.88
2023-05-20T17:50:32.009Z,102062.19
2023-05-20T17:52:35.461Z,102059.66
2023-05-20T17:54:38.980Z,102055.22
2023-05-20T17:56:45.455Z,102060.50
2023-05-20T17:58:48.810Z,102058.81
2023-05-20T18:00:52.328Z,102062.38
2023-05-20T18:02:57.633Z,102064.28
2023-05-20T18:05:01.195Z,102059.19
2023-05-20T18:07:05.088Z,102057.50
2023-05-20T18:09:08.572Z,102054.88
2023-05-20T18:11:12.148Z,102057.69
2023-05-20T18:13:16.947Z,102051.56
2023-05-20T18:15:21.292Z,102051.78
2023-05-20T18:17:24.786Z,102051.88
2023-05-20T18:19:28.305Z,102052.00
2023-05-20T18:21:31.755Z,102051.16
2023-05-20T18:23:35.103Z,102051.16
2023-05-20T18:25:40.453Z,102036.25
2023-05-20T18:27:45.241Z,102051.34
2023-05-20T18:29:50.611Z,102038.25
2023-05-20T18:31:54.159Z,102044.56
2023-05-20T18:33:57.534Z,102044.75
2023-05-20T18:36:01.066Z,102046.66
2023-05-20T18:38:04.458Z,102048.53
2023-05-20T18:40:09.146Z,102053.06
2023-05-20T18:42:12.512Z,102050.44
2023-05-20T18:44:16.089Z,102057.59
2023-05-20T18:46:21.025Z,102048.94
2023-05-20T18:48:27.164Z,102058.66
2023-05-20T18:50:30.843Z,102059.78
2023-05-20T18:52:34.179Z,102059.16
2023-05-20T18:54:37.576Z,102060.28
2023-05-20T18:56:41.624Z,102056.16
2023-05-20T18:58:44.951Z,102062.56
2023-05-20T19:00:48.317Z,102056.63
2023-05-20T19:02:53.147Z,102062.09
2023-05-20T19:04:56.568Z,102068.41
2023-05-20T19:07:00.880Z,102061.66
2023-05-20T19:09:04.552Z,102074.09
2023-05-20T19:11:07.872Z,102072.69
2023-05-20T19:13:11.297Z,102063.25
2023-05-20T19:15:15.822Z,102064.44
2023-05-20T19:17:20.938Z,102060.41
2023-05-20T19:19:26.118Z,102066.16
2023-05-20T19:21:30.757Z,102074.44
2023-05-20T19:23:34.102Z,102075.84
2023-05-20T19:25:37.700Z,102075.38
2023-05-20T19:27:41.396Z,102078.38
2023-05-20T19:29:44.798Z,102083.09
2023-05-20T19:31:48.149Z,102079.97
2023-05-20T19:33:51.855Z,102076.88
2023-05-20T19:35:57.806Z,102078.06
2023-05-20T19:38:01.401Z,102087.16
2023-05-20T19:40:05.302Z,102090.16
2023-05-20T19:42:08.767Z,102084.31
2023-05-20T19:44:12.087Z,102082.06
2023-05-20T19:46:15.486Z,102084.88
2023-05-20T19:48:21.338Z,102086.06
2023-05-20T19:52:43.478Z,102084.63
2023-05-20T19:54:46.889Z,102088.19
2023-05-20T19:56:50.332Z,102091.00
2023-05-20T19:58:53.731Z,102095.50
2023-05-20T20:00:57.078Z,102091.28
2023-05-20T20:03:03.178Z,102098.34
2023-05-20T20:05:07.663Z,102086.09
2023-05-20T20:07:11.140Z,102085.34
2023-05-20T20:09:16.079Z,102087.22
2023-05-20T20:11:19.515Z,102082.13
2023-05-20T20:13:22.857Z,102086.66
2023-05-20T20:15:27.165Z,102079.78
2023-05-20T20:17:30.900Z,102081.75
2023-05-20T20:19:34.286Z,102081.81
2023-05-20T20:21:40.251Z,102080.22
2023-05-20T20:23:44.007Z,102082.94
2023-05-20T20:25:50.704Z,102084.81
2023-05-20T20:27:54.168Z,102087.53
2023-05-20T20:29:57.618Z,102082.38
2023-05-20T20:32:01.161Z,102076.34
2023-05-20T20:34:04.598Z,102078.19
2023-05-20T20:36:08.967Z,102077.34
2023-05-20T20:38:12.375Z,102086.19
2023-05-20T20:40:16.509Z,102080.91
2023-05-20T20:42:22.384Z,102078.38
2023-05-20T20:44:26.704Z,102084.56
2023-05-20T20:46:30.314Z,102080.22
2023-05-20T20:48:34.614Z,102087.28
2023-05-20T20:50:39.011Z,102083.78
2023-05-20T20:52:42.802Z,102082.09
2023-05-20T20:54:46.229Z,102080.41
2023-05-20T20:56:50.222Z,102075.31
2023-05-20T20:58:57.354Z,102077.00
2023-05-20T21:01:00.738Z,102076.22
2023-05-20T21:03:06.456Z,102073.69
2023-05-20T21:05:10.515Z,102064.09
2023-05-20T21:07:18.416Z,102065.88
2023-05-20T21:09:22.543Z,102063.31
2023-05-20T21:11:28.083Z,102063.41
2023-05-20T21:13:31.807Z,102065.31
2023-05-20T21:15:36.804Z,102058.34
2023-05-20T21:17:40.374Z,102065.47
2023-05-20T21:19:43.790Z,102064.72
2023-05-20T21:21:47.229Z,102056.81
2023-05-20T21:23:52.139Z,102055.19
2023-05-20T21:25:55.493Z,102065.81
2023-05-20T21:27:58.876Z,102062.41
2023-05-20T21:30:02.360Z,102060.72
2023-05-20T21:32:08.589Z,102056.38
2023-05-20T21:34:12.837Z,102057.31
2023-05-20T21:36:16.719Z,102057.47
2023-05-20T21:38:20.099Z,102052.28
2023-05-20T21:40:23.544Z,102054.06
2023-05-20T21:42:27.815Z,102049.81
2023-05-20T21:44:31.326Z,102048.97
2023-05-20T21:46:35.194Z,102045.59
2023-05-20T21:48:40.765Z,102040.31
2023-05-20T21:50:44.561Z,102043.91
2023-05-20T21:52:47.994Z,102035.25
2023-05-20T21:54:51.797Z,102038.81
2023-05-20T21:56:55.407Z,102035.41
2023-05-20T21:58:58.922Z,102033.72
2023-05-20T22:01:02.648Z,102030.31
2023-05-20T22:03:06.371Z,102035.66
2023-05-20T22:05:12.613Z,102026.94
2023-05-20T22:07:16.348Z,102031.41
2023-05-20T22:09:19.862Z,102037.59
2023-05-20T22:11:24.082Z,102028.94
2023-05-20T22:13:28.149Z,102035.22
2023-05-20T22:15:31.890Z,102025.72
2023-05-20T22:17:35.701Z,102035.47
2023-05-20T22:19:40.250Z,102038.28
2023-05-20T22:21:50.771Z,102025.22
2023-05-20T22:23:54.998Z,102027.00
2023-05-20T22:25:58.627Z,102031.50
2023-05-20T22:28:04.697Z,102022.84
2023-05-20T22:30:09.965Z,102025.53
2023-05-20T22:32:18.988Z,102018.66
2023-05-20T22:34:22.449Z,102025.69
2023-05-20T22:36:25.870Z,102010.94
2023-05-20T22:38:30.915Z,102012.81
2023-05-20T22:40:34.808Z,102011.09
2023-05-20T22:42:38.177Z,102006.78
2023-05-20T22:44:41.539Z,102001.53
2023-05-20T22:46:44.914Z,102001.53
2023-05-20T22:48:48.357Z,102003.38
2023-05-20T22:50:54.109Z,101994.66
2023-05-20T22:52:57.610Z,101992.94
2023-05-20T22:55:02.431Z,101981.59
2023-05-20T22:57:06.195Z,101985.16
2023-05-20T22:59:09.544Z,101985.16
2023-05-20T23:01:13.372Z,101990.41
2023-05-20T23:03:16.936Z,101980.75
2023-05-20T23:05:20.487Z,101980.81
2023-05-20T23:07:23.886Z,101983.44
2023-05-20T23:09:27.262Z,101987.00
2023-05-20T23:11:32.029Z,101980.06
2023-05-20T23:13:35.430Z,101980.06
2023-05-20T23:15:48.019Z,101973.22
2023-05-20T23:17:52.134Z,101975.00
2023-05-20T23:19:55.646Z,101978.53
2023-05-20T23:21:58.920Z,101979.47
2023-05-20T23:24:02.215Z,101971.59
2023-05-20T23:26:05.624Z,101964.63
2023-05-20T23:28:10.293Z,101965.56
2023-05-20T23:30:13.801Z,101961.25
2023-05-20T23:32:17.048Z,101960.38
2023-05-20T23:34:20.263Z,101957.00
2023-05-20T23:36:23.507Z,101956.91
2023-05-20T23:38:26.821Z,101945.56
2023-05-20T23:40:30.172Z,101951.75
2023-05-20T23:42:33.369Z,101945.63